sensor_id;sensor_type;location;lat;lon;timestamp;temperature;humidity
15937;DHT22;9163;48.818;8.976;2022-10-03T00:01:53;10.40;99.90
15937;DHT22;9163;48.818;8.976;2022-10-03T00:04:36;10.40;99.90
15937;DHT22;9163;48.818;8.976;2022-10-03T00:07:14;10.40;99.90
15937;DHT22;9163;48.818;8.976;2022-10-03T00:09:53;10.40;99.90
15937;DHT22;9163;48.818;8.976;2022-10-03T00:12:39;10.40;99.90
15937;DHT22;9163;48.818;8.976;2022-10-03T00:15:16;10.30;99.90
15937;DHT22;9163;48.818;8.976;2022-10-03T00:17:57;10.20;99.90
15937;DHT22;9163;48.818;8.976;2022-10-03T00:20:49;10.30;99.90
15937;DHT22;9163;48.818;8.976;2022-10-03T00:23:26;10.30;99.90
15937;DHT22;9163;48.818;8.976;2022-10-03T00:25:59;10.30;99.90
15937;DHT22;9163;48.818;8.976;2022-10-03T00:29:04;10.40;99.90
15937;DHT22;9163;48.818;8.976;2022-10-03T00:31:44;10.40;99.90
15937;DHT22;9163;48.818;8.976;2022-10-03T00:34:23;10.40;99.90
15937;DHT22;9163;48.818;8.976;2022-10-03T00:37:06;10.40;99.90
15937;DHT22;9163;48.818;8.976;2022-10-03T00:39:48;10.40;99.90
15937;DHT22;9163;48.818;8.976;2022-10-03T00:42:58;10.40;99.90
15937;DHT22;9163;48.818;8.976;2022-10-03T00:45:49;10.40;99.90
15937;DHT22;9163;48.818;8.976;2022-10-03T00:51:30;10.50;99.90
15937;DHT22;9163;48.818;8.976;2022-10-03T00:54:12;10.50;99.90
15937;DHT22;9163;48.818;8.976;2022-10-03T00:59:50;10.60;99.90
15937;DHT22;9163;48.818;8.976;2022-10-03T01:02:40;10.60;99.90
15937;DHT22;9163;48.818;8.976;2022-10-03T01:05:18;10.60;99.90
15937;DHT22;9163;48.818;8.976;2022-10-03T01:08:07;10.60;99.90
15937;DHT22;9163;48.818;8.976;2022-10-03T01:10:50;10.60;99.90
15937;DHT22;9163;48.818;8.976;2022-10-03T01:13:33;10.50;99.90
15937;DHT22;9163;48.818;8.976;2022-10-03T01:16:11;10.50;99.90
15937;DHT22;9163;48.818;8.976;2022-10-03T01:18:53;10.50;99.90
15937;DHT22;9163;48.818;8.976;2022-10-03T01:21:31;10.50;99.90
15937;DHT22;9163;48.818;8.976;2022-10-03T01:24:24;10.50;99.90
15937;DHT22;9163;48.818;8.976;2022-10-03T01:27:00;10.40;99.90
15937;DHT22;9163;48.818;8.976;2022-10-03T01:29:42;10.40;99.90
15937;DHT22;9163;48.818;8.976;2022-10-03T01:32:32;10.40;99.90
15937;DHT22;9163;48.818;8.976;2022-10-03T01:35:10;10.50;99.90
15937;DHT22;9163;48.818;8.976;2022-10-03T01:37:47;10.50;99.90
15937;DHT22;9163;48.818;8.976;2022-10-03T01:40:24;10.50;99.90
15937;DHT22;9163;48.818;8.976;2022-10-03T01:43:10;10.50;99.90
15937;DHT22;9163;48.818;8.976;2022-10-03T01:45:54;10.50;99.90
15937;DHT22;9163;48.818;8.976;2022-10-03T01:48:32;10.50;99.90
15937;DHT22;9163;48.818;8.976;2022-10-03T01:51:08;10.60;99.90
15937;DHT22;9163;48.818;8.976;2022-10-03T01:53:52;10.60;99.90
15937;DHT22;9163;48.818;8.976;2022-10-03T01:56:28;10.60;99.90
15937;DHT22;9163;48.818;8.976;2022-10-03T01:59:03;10.60;99.90
15937;DHT22;9163;48.818;8.976;2022-10-03T02:01:42;10.60;99.90
15937;DHT22;9163;48.818;8.976;2022-10-03T02:04:17;10.60;99.90
15937;DHT22;9163;48.818;8.976;2022-10-03T02:06:52;10.60;99.90
15937;DHT22;9163;48.818;8.976;2022-10-03T02:09:28;10.60;99.90
15937;DHT22;9163;48.818;8.976;2022-10-03T02:12:11;10.60;99.90
15937;DHT22;9163;48.818;8.976;2022-10-03T02:14:50;10.60;99.90
15937;DHT22;9163;48.818;8.976;2022-10-03T02:17:29;10.60;99.90
15937;DHT22;9163;48.818;8.976;2022-10-03T02:20:08;10.70;99.90
15937;DHT22;9163;48.818;8.976;2022-10-03T02:22:42;10.60;99.90
15937;DHT22;9163;48.818;8.976;2022-10-03T02:25:23;10.60;99.90
15937;DHT22;9163;48.818;8.976;2022-10-03T02:31:13;10.50;99.90
15937;DHT22;9163;48.818;8.976;2022-10-03T02:34:32;10.50;99.90
15937;DHT22;9163;48.818;8.976;2022-10-03T02:37:35;10.50;99.90
15937;DHT22;9163;48.818;8.976;2022-10-03T02:40:46;10.50;99.90
15937;DHT22;9163;48.818;8.976;2022-10-03T02:47:09;10.40;99.90
15937;DHT22;9163;48.818;8.976;2022-10-03T02:55:56;10.20;99.90
15937;DHT22;9163;48.818;8.976;2022-10-03T03:02:10;10.10;99.90
15937;DHT22;9163;48.818;8.976;2022-10-03T03:05:05;10.00;99.90
15937;DHT22;9163;48.818;8.976;2022-10-03T03:07:54;9.90;99.90
15937;DHT22;9163;48.818;8.976;2022-10-03T03:10:39;9.90;99.90
15937;DHT22;9163;48.818;8.976;2022-10-03T03:13:33;9.80;99.90
15937;DHT22;9163;48.818;8.976;2022-10-03T03:19:25;9.80;99.90
15937;DHT22;9163;48.818;8.976;2022-10-03T03:22:00;9.80;99.90
15937;DHT22;9163;48.818;8.976;2022-10-03T03:24:41;9.70;99.90
15937;DHT22;9163;48.818;8.976;2022-10-03T03:30:05;9.60;99.90
15937;DHT22;9163;48.818;8.976;2022-10-03T03:32:47;9.60;99.90
15937;DHT22;9163;48.818;8.976;2022-10-03T03:35:25;9.60;99.90
15937;DHT22;9163;48.818;8.976;2022-10-03T03:38:02;9.60;99.90
15937;DHT22;9163;48.818;8.976;2022-10-03T03:40:45;9.50;99.90
15937;DHT22;9163;48.818;8.976;2022-10-03T03:43:36;9.50;99.90
15937;DHT22;9163;48.818;8.976;2022-10-03T03:46:15;9.60;99.90
15937;DHT22;9163;48.818;8.976;2022-10-03T03:49:12;9.50;99.90
15937;DHT22;9163;48.818;8.976;2022-10-03T03:51:48;9.50;99.90
15937;DHT22;9163;48.818;8.976;2022-10-03T03:57:25;9.30;99.90
15937;DHT22;9163;48.818;8.976;2022-10-03T04:00:05;9.30;99.90
15937;DHT22;9163;48.818;8.976;2022-10-03T04:05:47;9.20;99.90
15937;DHT22;9163;48.818;8.976;2022-10-03T04:08:29;9.10;99.90
15937;DHT22;9163;48.818;8.976;2022-10-03T04:11:10;9.10;99.90
15937;DHT22;9163;48.818;8.976;2022-10-03T04:14:13;9.10;99.90
15937;DHT22;9163;48.818;8.976;2022-10-03T04:16:56;9.00;99.90
15937;DHT22;9163;48.818;8.976;2022-10-03T04:20:01;9.00;99.90
15937;DHT22;9163;48.818;8.976;2022-10-03T04:22:52;9.00;99.90
15937;DHT22;9163;48.818;8.976;2022-10-03T04:28:46;8.90;99.90
15937;DHT22;9163;48.818;8.976;2022-10-03T04:31:30;8.90;99.90
15937;DHT22;9163;48.818;8.976;2022-10-03T04:34:20;8.90;99.90
15937;DHT22;9163;48.818;8.976;2022-10-03T04:37:11;8.90;99.90
15937;DHT22;9163;48.818;8.976;2022-10-03T04:39:47;8.80;99.90
15937;DHT22;9163;48.818;8.976;2022-10-03T04:42:26;8.80;99.90
15937;DHT22;9163;48.818;8.976;2022-10-03T04:45:11;8.80;99.90
15937;DHT22;9163;48.818;8.976;2022-10-03T04:47:46;8.80;99.90
15937;DHT22;9163;48.818;8.976;2022-10-03T04:50:30;8.80;99.90
15937;DHT22;9163;48.818;8.976;2022-10-03T04:53:14;8.90;99.90
15937;DHT22;9163;48.818;8.976;2022-10-03T04:55:48;9.00;99.90
15937;DHT22;9163;48.818;8.976;2022-10-03T04:58:25;9.10;99.90
15937;DHT22;9163;48.818;8.976;2022-10-03T05:00:59;9.00;99.90
15937;DHT22;9163;48.818;8.976;2022-10-03T05:03:42;9.00;99.90
15937;DHT22;9163;48.818;8.976;2022-10-03T05:06:25;9.10;99.90
15937;DHT22;9163;48.818;8.976;2022-10-03T05:08:58;9.20;99.90
15937;DHT22;9163;48.818;8.976;2022-10-03T05:11:38;9.20;99.90
15937;DHT22;9163;48.818;8.976;2022-10-03T05:14:15;9.30;99.90
15937;DHT22;9163;48.818;8.976;2022-10-03T05:16:53;9.30;99.90
15937;DHT22;9163;48.818;8.976;2022-10-03T05:19:44;9.40;99.90
15937;DHT22;9163;48.818;8.976;2022-10-03T05:22:22;9.40;99.90
15937;DHT22;9163;48.818;8.976;2022-10-03T05:24:57;9.40;99.90
15937;DHT22;9163;48.818;8.976;2022-10-03T05:27:35;9.50;99.90
15937;DHT22;9163;48.818;8.976;2022-10-03T05:30:12;9.50;99.90
15937;DHT22;9163;48.818;8.976;2022-10-03T05:32:44;9.60;99.90
15937;DHT22;9163;48.818;8.976;2022-10-03T05:35:28;9.60;99.90
15937;DHT22;9163;48.818;8.976;2022-10-03T05:38:22;9.60;99.90
15937;DHT22;9163;48.818;8.976;2022-10-03T05:40:59;9.60;99.90
15937;DHT22;9163;48.818;8.976;2022-10-03T05:43:42;9.50;99.90
15937;DHT22;9163;48.818;8.976;2022-10-03T05:46:20;9.60;99.90
15937;DHT22;9163;48.818;8.976;2022-10-03T05:48:50;9.50;99.90
15937;DHT22;9163;48.818;8.976;2022-10-03T05:51:49;9.50;99.90
15937;DHT22;9163;48.818;8.976;2022-10-03T05:54:49;9.60;99.90
15937;DHT22;9163;48.818;8.976;2022-10-03T05:57:48;9.60;99.90
15937;DHT22;9163;48.818;8.976;2022-10-03T06:00:28;9.70;99.90
15937;DHT22;9163;48.818;8.976;2022-10-03T06:03:29;9.80;99.90
15937;DHT22;9163;48.818;8.976;2022-10-03T06:06:10;9.90;99.90
15937;DHT22;9163;48.818;8.976;2022-10-03T06:11:54;10.00;99.90
15937;DHT22;9163;48.818;8.976;2022-10-03T06:14:37;10.00;99.90
15937;DHT22;9163;48.818;8.976;2022-10-03T06:17:33;9.90;99.90
15937;DHT22;9163;48.818;8.976;2022-10-03T06:20:29;10.00;99.90
15937;DHT22;9163;48.818;8.976;2022-10-03T06:29:30;10.00;99.90
15937;DHT22;9163;48.818;8.976;2022-10-03T06:32:28;10.10;99.90
15937;DHT22;9163;48.818;8.976;2022-10-03T06:35:44;10.10;99.90
15937;DHT22;9163;48.818;8.976;2022-10-03T06:41:40;10.20;99.90
15937;DHT22;9163;48.818;8.976;2022-10-03T06:44:33;10.30;99.90
15937;DHT22;9163;48.818;8.976;2022-10-03T06:47:20;10.40;99.90
15937;DHT22;9163;48.818;8.976;2022-10-03T06:56:07;10.40;99.90
15937;DHT22;9163;48.818;8.976;2022-10-03T07:02:02;10.50;99.90
15937;DHT22;9163;48.818;8.976;2022-10-03T07:11:04;10.70;99.90
15937;DHT22;9163;48.818;8.976;2022-10-03T07:13:56;10.70;99.90
15937;DHT22;9163;48.818;8.976;2022-10-03T07:16:59;10.80;99.90
15937;DHT22;9163;48.818;8.976;2022-10-03T07:26:14;11.00;99.90
15937;DHT22;9163;48.818;8.976;2022-10-03T07:32:04;11.00;99.90
15937;DHT22;9163;48.818;8.976;2022-10-03T07:35:03;11.10;99.90
15937;DHT22;9163;48.818;8.976;2022-10-03T07:38:02;11.20;99.90
15937;DHT22;9163;48.818;8.976;2022-10-03T07:41:13;11.30;99.90
15937;DHT22;9163;48.818;8.976;2022-10-03T07:44:13;11.40;99.90
15937;DHT22;9163;48.818;8.976;2022-10-03T07:50:14;11.40;99.90
15937;DHT22;9163;48.818;8.976;2022-10-03T07:53:04;11.40;99.90
15937;DHT22;9163;48.818;8.976;2022-10-03T07:55:51;11.50;99.90
15937;DHT22;9163;48.818;8.976;2022-10-03T07:58:42;11.40;99.90
15937;DHT22;9163;48.818;8.976;2022-10-03T08:01:28;11.50;99.90
15937;DHT22;9163;48.818;8.976;2022-10-03T08:07:23;11.60;99.90
15937;DHT22;9163;48.818;8.976;2022-10-03T08:10:05;11.80;99.90
15937;DHT22;9163;48.818;8.976;2022-10-03T08:15:57;12.10;99.90
15937;DHT22;9163;48.818;8.976;2022-10-03T08:19:04;12.20;99.90
15937;DHT22;9163;48.818;8.976;2022-10-03T08:21:50;12.30;99.90
15937;DHT22;9163;48.818;8.976;2022-10-03T08:24:48;12.50;99.90
15937;DHT22;9163;48.818;8.976;2022-10-03T08:27:25;12.50;99.90
15937;DHT22;9163;48.818;8.976;2022-10-03T08:30:03;12.60;99.90
15937;DHT22;9163;48.818;8.976;2022-10-03T08:32:46;12.70;99.90
15937;DHT22;9163;48.818;8.976;2022-10-03T08:38:53;12.90;99.90
15937;DHT22;9163;48.818;8.976;2022-10-03T08:44:40;13.20;99.90
15937;DHT22;9163;48.818;8.976;2022-10-03T08:50:55;13.20;99.90
15937;DHT22;9163;48.818;8.976;2022-10-03T08:54:05;13.30;99.90
15937;DHT22;9163;48.818;8.976;2022-10-03T08:56:55;13.50;99.90
15937;DHT22;9163;48.818;8.976;2022-10-03T09:00:01;13.70;99.90
15937;DHT22;9163;48.818;8.976;2022-10-03T09:05:53;14.60;99.90
15937;DHT22;9163;48.818;8.976;2022-10-03T09:08:44;15.20;99.90
15937;DHT22;9163;48.818;8.976;2022-10-03T09:14:52;16.50;99.90
15937;DHT22;9163;48.818;8.976;2022-10-03T09:20:57;16.50;99.90
15937;DHT22;9163;48.818;8.976;2022-10-03T09:23:52;16.50;99.90
15937;DHT22;9163;48.818;8.976;2022-10-03T09:26:47;16.30;99.90
15937;DHT22;9163;48.818;8.976;2022-10-03T09:29:28;16.00;99.90
15937;DHT22;9163;48.818;8.976;2022-10-03T09:35:34;15.90;99.90
15937;DHT22;9163;48.818;8.976;2022-10-03T09:41:30;17.20;99.90
15937;DHT22;9163;48.818;8.976;2022-10-03T09:44:30;17.90;99.90
15937;DHT22;9163;48.818;8.976;2022-10-03T09:47:39;17.90;99.90
15937;DHT22;9163;48.818;8.976;2022-10-03T09:50:53;17.50;99.90
15937;DHT22;9163;48.818;8.976;2022-10-03T09:56:49;17.10;99.90
15937;DHT22;9163;48.818;8.976;2022-10-03T09:59:50;16.50;99.90
15937;DHT22;9163;48.818;8.976;2022-10-03T10:05:46;15.70;99.90
15937;DHT22;9163;48.818;8.976;2022-10-03T10:11:30;15.30;99.90
15937;DHT22;9163;48.818;8.976;2022-10-03T10:14:18;15.90;99.90
15937;DHT22;9163;48.818;8.976;2022-10-03T10:20:10;18.60;99.90
15937;DHT22;9163;48.818;8.976;2022-10-03T10:29:21;21.30;99.90
15937;DHT22;9163;48.818;8.976;2022-10-03T10:35:39;21.60;99.90
15937;DHT22;9163;48.818;8.976;2022-10-03T10:38:33;20.70;99.90
15937;DHT22;9163;48.818;8.976;2022-10-03T10:41:48;20.00;99.90
15937;DHT22;9163;48.818;8.976;2022-10-03T10:45:01;19.10;99.90
15937;DHT22;9163;48.818;8.976;2022-10-03T10:48:17;18.30;99.90
15937;DHT22;9163;48.818;8.976;2022-10-03T10:51:26;17.80;99.90
15937;DHT22;9163;48.818;8.976;2022-10-03T10:57:08;17.50;99.90
15937;DHT22;9163;48.818;8.976;2022-10-03T11:00:10;17.50;99.90
15937;DHT22;9163;48.818;8.976;2022-10-03T11:03:32;17.40;99.90
15937;DHT22;9163;48.818;8.976;2022-10-03T11:06:51;17.70;99.90
15937;DHT22;9163;48.818;8.976;2022-10-03T11:09:30;18.70;99.90
15937;DHT22;9163;48.818;8.976;2022-10-03T11:12:34;19.80;99.90
15937;DHT22;9163;48.818;8.976;2022-10-03T11:15:45;20.20;99.90
15937;DHT22;9163;48.818;8.976;2022-10-03T11:18:52;21.70;99.90
15937;DHT22;9163;48.818;8.976;2022-10-03T11:27:52;22.50;99.90
15937;DHT22;9163;48.818;8.976;2022-10-03T11:34:06;27.20;99.90
15937;DHT22;9163;48.818;8.976;2022-10-03T11:37:04;27.80;99.90
15937;DHT22;9163;48.818;8.976;2022-10-03T11:39:39;29.10;99.90
15937;DHT22;9163;48.818;8.976;2022-10-03T11:42:20;30.10;99.90
15937;DHT22;9163;48.818;8.976;2022-10-03T11:44:55;30.30;99.90
15937;DHT22;9163;48.818;8.976;2022-10-03T11:47:48;30.30;99.90
15937;DHT22;9163;48.818;8.976;2022-10-03T11:50:26;30.70;95.10
15937;DHT22;9163;48.818;8.976;2022-10-03T11:53:15;31.20;92.00
15937;DHT22;9163;48.818;8.976;2022-10-03T11:55:49;31.80;93.20
15937;DHT22;9163;48.818;8.976;2022-10-03T11:58:30;30.90;93.50
15937;DHT22;9163;48.818;8.976;2022-10-03T12:01:15;29.00;95.50
15937;DHT22;9163;48.818;8.976;2022-10-03T12:03:51;27.10;96.50
15937;DHT22;9163;48.818;8.976;2022-10-03T12:06:34;25.50;99.90
15937;DHT22;9163;48.818;8.976;2022-10-03T12:09:28;24.30;99.90
15937;DHT22;9163;48.818;8.976;2022-10-03T12:12:05;23.20;99.90
15937;DHT22;9163;48.818;8.976;2022-10-03T12:14:39;22.50;99.90
15937;DHT22;9163;48.818;8.976;2022-10-03T12:17:13;21.70;99.90
15937;DHT22;9163;48.818;8.976;2022-10-03T12:19:53;21.40;99.90
15937;DHT22;9163;48.818;8.976;2022-10-03T12:22:38;20.90;99.90
15937;DHT22;9163;48.818;8.976;2022-10-03T12:25:17;20.70;99.90
15937;DHT22;9163;48.818;8.976;2022-10-03T12:27:51;20.40;99.90
15937;DHT22;9163;48.818;8.976;2022-10-03T12:30:23;20.30;99.90
15937;DHT22;9163;48.818;8.976;2022-10-03T12:33:06;20.10;99.90
15937;DHT22;9163;48.818;8.976;2022-10-03T12:35:42;20.20;99.90
15937;DHT22;9163;48.818;8.976;2022-10-03T12:38:23;20.30;99.90
15937;DHT22;9163;48.818;8.976;2022-10-03T12:40:59;20.50;99.90
15937;DHT22;9163;48.818;8.976;2022-10-03T12:43:42;20.70;99.90
15937;DHT22;9163;48.818;8.976;2022-10-03T12:46:15;21.20;99.90
15937;DHT22;9163;48.818;8.976;2022-10-03T12:48:51;22.60;99.90
15937;DHT22;9163;48.818;8.976;2022-10-03T12:51:38;25.30;99.90
15937;DHT22;9163;48.818;8.976;2022-10-03T12:54:22;27.10;99.90
15937;DHT22;9163;48.818;8.976;2022-10-03T13:00:01;30.50;99.90
15937;DHT22;9163;48.818;8.976;2022-10-03T13:02:33;32.20;96.40
15937;DHT22;9163;48.818;8.976;2022-10-03T13:08:38;32.60;87.80
15937;DHT22;9163;48.818;8.976;2022-10-03T13:11:19;30.00;91.30
15937;DHT22;9163;48.818;8.976;2022-10-03T13:14:05;29.50;93.60
15937;DHT22;9163;48.818;8.976;2022-10-03T13:16:39;28.70;94.60
15937;DHT22;9163;48.818;8.976;2022-10-03T13:19:12;30.00;95.70
15937;DHT22;9163;48.818;8.976;2022-10-03T13:21:52;31.40;94.70
15937;DHT22;9163;48.818;8.976;2022-10-03T13:24:29;32.80;91.70
15937;DHT22;9163;48.818;8.976;2022-10-03T13:27:07;33.50;83.20
15937;DHT22;9163;48.818;8.976;2022-10-03T13:29:40;33.40;82.80
15937;DHT22;9163;48.818;8.976;2022-10-03T13:32:16;33.60;80.40
15937;DHT22;9163;48.818;8.976;2022-10-03T13:34:58;34.30;80.80
15937;DHT22;9163;48.818;8.976;2022-10-03T13:38:07;34.20;78.10
15937;DHT22;9163;48.818;8.976;2022-10-03T13:40:41;33.00;72.60
15937;DHT22;9163;48.818;8.976;2022-10-03T13:43:13;32.70;75.10
15937;DHT22;9163;48.818;8.976;2022-10-03T13:45:46;33.10;74.20
15937;DHT22;9163;48.818;8.976;2022-10-03T13:48:18;32.90;79.90
15937;DHT22;9163;48.818;8.976;2022-10-03T13:50:50;33.40;76.20
15937;DHT22;9163;48.818;8.976;2022-10-03T13:53:38;32.90;75.80
15937;DHT22;9163;48.818;8.976;2022-10-03T13:56:12;31.80;76.20
15937;DHT22;9163;48.818;8.976;2022-10-03T13:58:45;29.70;80.00
15937;DHT22;9163;48.818;8.976;2022-10-03T14:01:40;28.20;82.40
15937;DHT22;9163;48.818;8.976;2022-10-03T14:04:30;26.90;86.60
15937;DHT22;9163;48.818;8.976;2022-10-03T14:07:09;25.70;90.90
15937;DHT22;9163;48.818;8.976;2022-10-03T14:12:49;23.90;94.90
15937;DHT22;9163;48.818;8.976;2022-10-03T14:15:25;23.00;96.30
15937;DHT22;9163;48.818;8.976;2022-10-03T14:18:02;22.20;98.70
15937;DHT22;9163;48.818;8.976;2022-10-03T14:20:33;21.70;99.90
15937;DHT22;9163;48.818;8.976;2022-10-03T14:23:12;21.20;99.90
15937;DHT22;9163;48.818;8.976;2022-10-03T14:25:49;20.80;99.90
15937;DHT22;9163;48.818;8.976;2022-10-03T14:28:26;20.60;99.90
15937;DHT22;9163;48.818;8.976;2022-10-03T14:31:02;20.60;99.90
15937;DHT22;9163;48.818;8.976;2022-10-03T14:33:38;20.50;99.90
15937;DHT22;9163;48.818;8.976;2022-10-03T14:36:17;20.60;99.90
15937;DHT22;9163;48.818;8.976;2022-10-03T14:38:56;20.90;99.90
15937;DHT22;9163;48.818;8.976;2022-10-03T14:41:37;21.30;99.90
15937;DHT22;9163;48.818;8.976;2022-10-03T14:44:12;22.00;99.90
15937;DHT22;9163;48.818;8.976;2022-10-03T14:46:46;22.40;99.90
15937;DHT22;9163;48.818;8.976;2022-10-03T14:49:18;22.40;99.90
15937;DHT22;9163;48.818;8.976;2022-10-03T14:51:50;22.50;99.90
15937;DHT22;9163;48.818;8.976;2022-10-03T14:54:21;22.80;99.90
15937;DHT22;9163;48.818;8.976;2022-10-03T14:56:50;23.00;99.90
15937;DHT22;9163;48.818;8.976;2022-10-03T14:59:21;23.20;99.90
15937;DHT22;9163;48.818;8.976;2022-10-03T15:01:52;23.10;99.90
15937;DHT22;9163;48.818;8.976;2022-10-03T15:04:26;23.00;99.90
15937;DHT22;9163;48.818;8.976;2022-10-03T15:06:56;23.20;99.90
15937;DHT22;9163;48.818;8.976;2022-10-03T15:09:31;22.90;99.90
15937;DHT22;9163;48.818;8.976;2022-10-03T15:12:10;23.00;99.90
15937;DHT22;9163;48.818;8.976;2022-10-03T15:14:45;23.00;99.90
15937;DHT22;9163;48.818;8.976;2022-10-03T15:17:17;22.80;99.90
15937;DHT22;9163;48.818;8.976;2022-10-03T15:19:48;22.70;99.90
15937;DHT22;9163;48.818;8.976;2022-10-03T15:22:28;22.50;99.90
15937;DHT22;9163;48.818;8.976;2022-10-03T15:24:59;22.20;99.90
15937;DHT22;9163;48.818;8.976;2022-10-03T15:27:27;21.80;99.90
15937;DHT22;9163;48.818;8.976;2022-10-03T15:29:58;21.70;99.90
15937;DHT22;9163;48.818;8.976;2022-10-03T15:32:31;21.50;99.90
15937;DHT22;9163;48.818;8.976;2022-10-03T15:35:01;21.50;99.90
15937;DHT22;9163;48.818;8.976;2022-10-03T15:37:31;21.40;99.90
15937;DHT22;9163;48.818;8.976;2022-10-03T15:40:06;21.10;99.90
15937;DHT22;9163;48.818;8.976;2022-10-03T15:42:47;20.90;99.90
15937;DHT22;9163;48.818;8.976;2022-10-03T15:45:24;20.40;99.90
15937;DHT22;9163;48.818;8.976;2022-10-03T15:47:57;19.80;99.90
15937;DHT22;9163;48.818;8.976;2022-10-03T15:50:27;19.50;99.90
15937;DHT22;9163;48.818;8.976;2022-10-03T15:52:57;19.10;99.90
15937;DHT22;9163;48.818;8.976;2022-10-03T15:55:31;18.70;99.90
15937;DHT22;9163;48.818;8.976;2022-10-03T15:58:13;18.50;99.90
15937;DHT22;9163;48.818;8.976;2022-10-03T16:00:47;18.30;99.90
15937;DHT22;9163;48.818;8.976;2022-10-03T16:03:17;18.10;99.90
15937;DHT22;9163;48.818;8.976;2022-10-03T16:05:56;18.10;99.90
15937;DHT22;9163;48.818;8.976;2022-10-03T16:08:29;18.00;99.90
15937;DHT22;9163;48.818;8.976;2022-10-03T16:11:04;17.80;99.90
15937;DHT22;9163;48.818;8.976;2022-10-03T16:13:35;17.60;99.90
15937;DHT22;9163;48.818;8.976;2022-10-03T16:16:12;17.40;99.90
15937;DHT22;9163;48.818;8.976;2022-10-03T16:19:18;17.00;99.90
15937;DHT22;9163;48.818;8.976;2022-10-03T16:21:49;16.70;99.90
15937;DHT22;9163;48.818;8.976;2022-10-03T16:24:28;16.50;99.90
15937;DHT22;9163;48.818;8.976;2022-10-03T16:27:04;16.20;99.90
15937;DHT22;9163;48.818;8.976;2022-10-03T16:29:34;16.00;99.90
15937;DHT22;9163;48.818;8.976;2022-10-03T16:32:06;15.60;99.90
15937;DHT22;9163;48.818;8.976;2022-10-03T16:34:35;15.30;99.90
15937;DHT22;9163;48.818;8.976;2022-10-03T16:37:18;15.00;99.90
15937;DHT22;9163;48.818;8.976;2022-10-03T16:39:57;14.80;99.90
15937;DHT22;9163;48.818;8.976;2022-10-03T16:42:29;14.50;99.90
15937;DHT22;9163;48.818;8.976;2022-10-03T16:45:04;14.30;99.90
15937;DHT22;9163;48.818;8.976;2022-10-03T16:47:35;14.10;99.90
15937;DHT22;9163;48.818;8.976;2022-10-03T16:50:18;13.80;99.90
15937;DHT22;9163;48.818;8.976;2022-10-03T16:52:53;13.60;99.90
15937;DHT22;9163;48.818;8.976;2022-10-03T16:55:26;13.50;99.90
15937;DHT22;9163;48.818;8.976;2022-10-03T16:57:56;13.30;99.90
15937;DHT22;9163;48.818;8.976;2022-10-03T17:00:33;13.20;99.90
15937;DHT22;9163;48.818;8.976;2022-10-03T17:03:15;13.00;99.90
15937;DHT22;9163;48.818;8.976;2022-10-03T17:05:45;12.90;99.90
15937;DHT22;9163;48.818;8.976;2022-10-03T17:08:16;12.70;99.90
15937;DHT22;9163;48.818;8.976;2022-10-03T17:10:44;12.60;99.90
15937;DHT22;9163;48.818;8.976;2022-10-03T17:13:15;12.40;99.90
15937;DHT22;9163;48.818;8.976;2022-10-03T17:15:47;12.20;99.90
15937;DHT22;9163;48.818;8.976;2022-10-03T17:18:22;12.10;99.90
15937;DHT22;9163;48.818;8.976;2022-10-03T17:20:53;11.90;99.90
15937;DHT22;9163;48.818;8.976;2022-10-03T17:23:27;11.80;99.90
15937;DHT22;9163;48.818;8.976;2022-10-03T17:26:04;11.70;99.90
15937;DHT22;9163;48.818;8.976;2022-10-03T17:28:40;11.70;99.90
15937;DHT22;9163;48.818;8.976;2022-10-03T17:31:23;11.60;99.90
15937;DHT22;9163;48.818;8.976;2022-10-03T17:33:54;11.50;99.90
15937;DHT22;9163;48.818;8.976;2022-10-03T17:36:58;11.30;99.90
15937;DHT22;9163;48.818;8.976;2022-10-03T17:39:36;11.30;99.90
15937;DHT22;9163;48.818;8.976;2022-10-03T17:42:15;11.20;99.90
15937;DHT22;9163;48.818;8.976;2022-10-03T17:44:54;11.10;99.90
15937;DHT22;9163;48.818;8.976;2022-10-03T17:47:31;11.10;99.90
15937;DHT22;9163;48.818;8.976;2022-10-03T17:50:05;11.00;99.90
15937;DHT22;9163;48.818;8.976;2022-10-03T17:52:39;11.00;99.90
15937;DHT22;9163;48.818;8.976;2022-10-03T17:55:14;10.90;99.90
15937;DHT22;9163;48.818;8.976;2022-10-03T17:57:47;10.90;99.90
15937;DHT22;9163;48.818;8.976;2022-10-03T18:00:18;10.80;99.90
15937;DHT22;9163;48.818;8.976;2022-10-03T18:02:53;10.70;99.90
15937;DHT22;9163;48.818;8.976;2022-10-03T18:05:28;10.70;99.90
15937;DHT22;9163;48.818;8.976;2022-10-03T18:08:00;10.60;99.90
15937;DHT22;9163;48.818;8.976;2022-10-03T18:10:33;10.50;99.90
15937;DHT22;9163;48.818;8.976;2022-10-03T18:13:01;10.50;99.90
15937;DHT22;9163;48.818;8.976;2022-10-03T18:15:57;10.40;99.90
15937;DHT22;9163;48.818;8.976;2022-10-03T18:21:53;10.30;99.90
15937;DHT22;9163;48.818;8.976;2022-10-03T18:24:30;10.20;99.90
15937;DHT22;9163;48.818;8.976;2022-10-03T18:30:14;10.20;99.90
15937;DHT22;9163;48.818;8.976;2022-10-03T18:32:43;10.10;99.90
15937;DHT22;9163;48.818;8.976;2022-10-03T18:35:14;10.00;99.90
15937;DHT22;9163;48.818;8.976;2022-10-03T18:38:04;10.00;99.90
15937;DHT22;9163;48.818;8.976;2022-10-03T18:40:35;9.90;99.90
15937;DHT22;9163;48.818;8.976;2022-10-03T18:43:06;9.90;99.90
15937;DHT22;9163;48.818;8.976;2022-10-03T18:45:46;9.80;99.90
15937;DHT22;9163;48.818;8.976;2022-10-03T18:48:21;9.90;99.90
15937;DHT22;9163;48.818;8.976;2022-10-03T18:50:56;9.80;99.90
15937;DHT22;9163;48.818;8.976;2022-10-03T18:53:32;9.80;99.90
15937;DHT22;9163;48.818;8.976;2022-10-03T18:56:02;9.70;99.90
15937;DHT22;9163;48.818;8.976;2022-10-03T18:58:34;9.60;99.90
15937;DHT22;9163;48.818;8.976;2022-10-03T19:01:05;9.60;99.90
15937;DHT22;9163;48.818;8.976;2022-10-03T19:03:37;9.50;99.90
15937;DHT22;9163;48.818;8.976;2022-10-03T19:06:11;9.50;99.90
15937;DHT22;9163;48.818;8.976;2022-10-03T19:08:45;9.50;99.90
15937;DHT22;9163;48.818;8.976;2022-10-03T19:11:18;9.40;99.90
15937;DHT22;9163;48.818;8.976;2022-10-03T19:13:56;9.30;99.90
15937;DHT22;9163;48.818;8.976;2022-10-03T19:16:36;9.30;99.90
15937;DHT22;9163;48.818;8.976;2022-10-03T19:19:11;9.20;99.90
15937;DHT22;9163;48.818;8.976;2022-10-03T19:21:41;9.20;99.90
15937;DHT22;9163;48.818;8.976;2022-10-03T19:24:13;9.20;99.90
15937;DHT22;9163;48.818;8.976;2022-10-03T19:26:44;9.20;99.90
15937;DHT22;9163;48.818;8.976;2022-10-03T19:29:14;9.10;99.90
15937;DHT22;9163;48.818;8.976;2022-10-03T19:31:51;9.10;99.90
15937;DHT22;9163;48.818;8.976;2022-10-03T19:34:28;9.10;99.90
15937;DHT22;9163;48.818;8.976;2022-10-03T19:36:58;9.00;99.90
15937;DHT22;9163;48.818;8.976;2022-10-03T19:39:29;9.00;99.90
15937;DHT22;9163;48.818;8.976;2022-10-03T19:42:17;9.00;99.90
15937;DHT22;9163;48.818;8.976;2022-10-03T19:44:48;8.90;99.90
15937;DHT22;9163;48.818;8.976;2022-10-03T19:47:17;8.90;99.90
15937;DHT22;9163;48.818;8.976;2022-10-03T19:49:51;8.90;99.90
15937;DHT22;9163;48.818;8.976;2022-10-03T19:52:24;8.90;99.90
15937;DHT22;9163;48.818;8.976;2022-10-03T19:55:02;8.80;99.90
15937;DHT22;9163;48.818;8.976;2022-10-03T19:57:38;8.80;99.90
15937;DHT22;9163;48.818;8.976;2022-10-03T20:00:19;8.80;99.90
15937;DHT22;9163;48.818;8.976;2022-10-03T20:02:52;8.80;99.90
15937;DHT22;9163;48.818;8.976;2022-10-03T20:05:23;8.80;99.90